sensor_id;sensor_type;location;lat;lon;timestamp;pressure;altitude;pressure_sealevel;temperature;humidity
73936;BME280;62287;50.858;0.252;2023-07-28T00:00:15;100375.89;;;19.85;44.12
73936;BME280;62287;50.858;0.252;2023-07-28T00:00:46;100375.46;;;19.92;44.03
73936;BME280;62287;50.858;0.252;2023-07-28T00:01:17;100374.00;;;20.10;43.91
73936;BME280;62287;50.858;0.252;2023-07-28T00:01:49;100373.60;;;20.27;43.67
73936;BME280;62287;50.858;0.252;2023-07-28T00:02:22;100375.88;;;20.00;43.48
73936;BME280;62287;50.858;0.252;2023-07-28T00:02:53;100374.65;;;20.42;43.39
73936;BME280;62287;50.858;0.252;2023-07-28T00:03:24;100376.30;;;20.40;43.30
73936;BME280;62287;50.858;0.252;2023-07-28T00:03:55;100376.21;;;20.23;43.56
73936;BME280;62287;50.858;0.252;2023-07-28T00:04:26;100373.94;;;20.77;43.40
73936;BME280;62287;50.858;0.252;2023-07-28T00:04:57;100372.90;;;20.52;43.29
73936;BME280;62287;50.858;0.252;2023-07-28T00:05:28;100373.06;;;20.58;43.19
73936;BME280;62287;50.858;0.252;2023-07-28T00:05:59;100372.79;;;20.25;43.42
73936;BME280;62287;50.858;0.252;2023-07-28T00:06:31;100373.92;;;20.48;43.21
73936;BME280;62287;50.858;0.252;2023-07-28T00:07:02;100370.80;;;20.59;43.16
73936;BME280;62287;50.858;0.252;2023-07-28T00:07:33;100373.28;;;20.40;42.97
73936;BME280;62287;50.858;0.252;2023-07-28T00:08:06;100368.07;;;20.90;42.88
73936;BME280;62287;50.858;0.252;2023-07-28T00:08:37;100372.72;;;20.76;42.89
73936;BME280;62287;50.858;0.252;2023-07-28T00:09:10;100371.01;;;20.32;42.97
73936;BME280;62287;50.858;0.252;2023-07-28T00:09:41;100370.44;;;20.00;43.18
73936;BME280;62287;50.858;0.252;2023-07-28T00:10:13;100370.79;;;20.14;43.43
73936;BME280;62287;50.858;0.252;2023-07-28T00:10:44;100370.76;;;20.01;43.20
73936;BME280;62287;50.858;0.252;2023-07-28T00:11:16;100370.73;;;20.65;43.01
73936;BME280;62287;50.858;0.252;2023-07-28T00:11:47;100369.04;;;20.67;42.91
73936;BME280;62287;50.858;0.252;2023-07-28T00:12:18;100366.81;;;20.91;42.83
73936;BME280;62287;50.858;0.252;2023-07-28T00:12:51;100370.00;;;20.88;42.65
73936;BME280;62287;50.858;0.252;2023-07-28T00:13:22;100369.08;;;20.27;43.21
73936;BME280;62287;50.858;0.252;2023-07-28T00:13:55;100371.16;;;20.25;42.94
73936;BME280;62287;50.858;0.252;2023-07-28T00:14:27;100367.36;;;20.32;43.09
73936;BME280;62287;50.858;0.252;2023-07-28T00:14:59;100364.23;;;19.84;43.54
73936;BME280;62287;50.858;0.252;2023-07-28T00:15:31;100369.71;;;19.88;43.66
73936;BME280;62287;50.858;0.252;2023-07-28T00:16:02;100366.87;;;19.98;43.51
73936;BME280;62287;50.858;0.252;2023-07-28T00:16:35;100368.63;;;19.89;43.30
73936;BME280;62287;50.858;0.252;2023-07-28T00:17:07;100368.59;;;19.87;43.23
73936;BME280;62287;50.858;0.252;2023-07-28T00:17:40;100367.67;;;20.05;43.46
73936;BME280;62287;50.858;0.252;2023-07-28T00:18:11;100366.56;;;20.26;43.25
73936;BME280;62287;50.858;0.252;2023-07-28T00:18:44;100366.87;;;20.49;43.09
73936;BME280;62287;50.858;0.252;2023-07-28T00:19:16;100367.36;;;20.35;42.85
73936;BME280;62287;50.858;0.252;2023-07-28T00:19:48;100369.16;;;20.43;42.74
73936;BME280;62287;50.858;0.252;2023-07-28T00:20:20;100366.28;;;20.85;42.60
73936;BME280;62287;50.858;0.252;2023-07-28T00:20:52;100367.54;;;20.61;42.62
73936;BME280;62287;50.858;0.252;2023-07-28T00:21:25;100371.90;;;20.07;42.92
73936;BME280;62287;50.858;0.252;2023-07-28T00:21:57;100371.43;;;20.43;42.99
73936;BME280;62287;50.858;0.252;2023-07-28T00:22:28;100371.46;;;19.83;43.39
73936;BME280;62287;50.858;0.252;2023-07-28T00:22:59;100373.93;;;19.66;43.49
73936;BME280;62287;50.858;0.252;2023-07-28T00:23:30;100373.86;;;20.40;43.11
73936;BME280;62287;50.858;0.252;2023-07-28T00:24:02;100375.69;;;20.69;42.79
73936;BME280;62287;50.858;0.252;2023-07-28T00:24:33;100377.00;;;20.54;42.87
73936;BME280;62287;50.858;0.252;2023-07-28T00:25:05;100376.11;;;20.44;42.68
73936;BME280;62287;50.858;0.252;2023-07-28T00:25:36;100377.95;;;20.42;42.60
73936;BME280;62287;50.858;0.252;2023-07-28T00:26:07;100375.47;;;20.98;42.51
73936;BME280;62287;50.858;0.252;2023-07-28T00:26:38;100378.86;;;20.59;42.78
73936;BME280;62287;50.858;0.252;2023-07-28T00:27:09;100379.96;;;20.19;42.61
73936;BME280;62287;50.858;0.252;2023-07-28T00:27:40;100378.95;;;20.22;42.98
73936;BME280;62287;50.858;0.252;2023-07-28T00:28:11;100382.26;;;20.20;43.09
73936;BME280;62287;50.858;0.252;2023-07-28T00:28:43;100380.77;;;20.35;43.05
73936;BME280;62287;50.858;0.252;2023-07-28T00:29:14;100381.87;;;19.78;43.56
73936;BME280;62287;50.858;0.252;2023-07-28T00:29:45;100384.71;;;19.24;44.07
73936;BME280;62287;50.858;0.252;2023-07-28T00:30:17;100383.67;;;19.65;43.89
73936;BME280;62287;50.858;0.252;2023-07-28T00:30:49;100383.34;;;19.97;43.61
73936;BME280;62287;50.858;0.252;2023-07-28T00:31:20;100383.61;;;19.79;43.72
73936;BME280;62287;50.858;0.252;2023-07-28T00:31:53;100385.36;;;20.31;43.29
73936;BME280;62287;50.858;0.252;2023-07-28T00:32:24;100385.56;;;20.36;43.17
73936;BME280;62287;50.858;0.252;2023-07-28T00:32:55;100383.85;;;20.37;43.18
73936;BME280;62287;50.858;0.252;2023-07-28T00:33:27;100385.69;;;21.10;42.82
73936;BME280;62287;50.858;0.252;2023-07-28T00:33:58;100385.92;;;20.50;42.88
73936;BME280;62287;50.858;0.252;2023-07-28T00:34:29;100387.17;;;20.13;42.89
73936;BME280;62287;50.858;0.252;2023-07-28T00:35:01;100385.45;;;20.42;42.98
73936;BME280;62287;50.858;0.252;2023-07-28T00:35:33;100386.77;;;20.26;43.07
73936;BME280;62287;50.858;0.252;2023-07-28T00:36:09;100386.77;;;20.10;43.02
73936;BME280;62287;50.858;0.252;2023-07-28T00:36:42;100389.74;;;20.29;42.84
73936;BME280;62287;50.858;0.252;2023-07-28T00:37:13;100388.98;;;20.48;42.61
73936;BME280;62287;50.858;0.252;2023-07-28T00:37:45;100389.22;;;20.57;42.46
73936;BME280;62287;50.858;0.252;2023-07-28T00:38:19;100388.07;;;20.06;42.78
73936;BME280;62287;50.858;0.252;2023-07-28T00:38:50;100390.40;;;19.97;42.72
73936;BME280;62287;50.858;0.252;2023-07-28T00:39:22;100387.26;;;20.52;42.87
73936;BME280;62287;50.858;0.252;2023-07-28T00:39:56;100388.27;;;20.51;42.90
73936;BME280;62287;50.858;0.252;2023-07-28T00:40:30;100389.77;;;20.49;42.64
73936;BME280;62287;50.858;0.252;2023-07-28T00:41:02;100390.14;;;20.50;42.45
73936;BME280;62287;50.858;0.252;2023-07-28T00:41:33;100389.30;;;20.99;42.35
73936;BME280;62287;50.858;0.252;2023-07-28T00:42:11;100390.86;;;21.28;42.42
73936;BME280;62287;50.858;0.252;2023-07-28T00:42:42;100391.64;;;20.99;42.33
73936;BME280;62287;50.858;0.252;2023-07-28T00:43:14;100392.53;;;20.89;42.31
73936;BME280;62287;50.858;0.252;2023-07-28T00:43:45;100393.32;;;20.95;42.33
73936;BME280;62287;50.858;0.252;2023-07-28T00:44:17;100391.43;;;20.91;42.36
73936;BME280;62287;50.858;0.252;2023-07-28T00:44:48;100394.33;;;20.46;42.37
73936;BME280;62287;50.858;0.252;2023-07-28T00:45:20;100393.51;;;20.65;42.16
73936;BME280;62287;50.858;0.252;2023-07-28T00:45:51;100395.42;;;20.70;42.16
73936;BME280;62287;50.858;0.252;2023-07-28T00:46:23;100395.63;;;20.81;42.09
73936;BME280;62287;50.858;0.252;2023-07-28T00:46:54;100397.41;;;21.05;42.17
73936;BME280;62287;50.858;0.252;2023-07-28T00:47:26;100398.99;;;20.64;42.22
73936;BME280;62287;50.858;0.252;2023-07-28T00:47:57;100398.13;;;20.90;42.33
73936;BME280;62287;50.858;0.252;2023-07-28T00:48:28;100400.92;;;20.49;42.34
73936;BME280;62287;50.858;0.252;2023-07-28T00:49:00;100397.08;;;20.81;42.39
73936;BME280;62287;50.858;0.252;2023-07-28T00:49:31;100398.20;;;20.70;42.52
73936;BME280;62287;50.858;0.252;2023-07-28T00:50:04;100398.45;;;20.64;42.59
73936;BME280;62287;50.858;0.252;2023-07-28T00:50:35;100397.38;;;20.58;42.60
73936;BME280;62287;50.858;0.252;2023-07-28T00:51:07;100399.42;;;20.54;42.62
73936;BME280;62287;50.858;0.252;2023-07-28T00:51:39;100397.09;;;20.66;42.59
73936;BME280;62287;50.858;0.252;2023-07-28T00:52:10;100399.07;;;20.75;42.52
73936;BME280;62287;50.858;0.252;2023-07-28T00:52:42;100396.97;;;19.89;42.78
73936;BME280;62287;50.858;0.252;2023-07-28T00:53:14;100395.70;;;20.52;42.75
73936;BME280;62287;50.858;0.252;2023-07-28T00:53:45;100397.24;;;20.24;42.57
73936;BME280;62287;50.858;0.252;2023-07-28T00:54:17;100395.14;;;20.49;42.45
73936;BME280;62287;50.858;0.252;2023-07-28T00:54:48;100395.56;;;20.93;42.36
73936;BME280;62287;50.858;0.252;2023-07-28T00:55:20;100395.76;;;21.08;42.20
73936;BME280;62287;50.858;0.252;2023-07-28T00:55:52;100395.67;;;20.64;42.45
73936;BME280;62287;50.858;0.252;2023-07-28T00:56:23;100395.40;;;20.06;42.89
73936;BME280;62287;50.858;0.252;2023-07-28T00:56:55;100395.85;;;20.34;42.88
73936;BME280;62287;50.858;0.252;2023-07-28T00:57:27;100395.24;;;20.12;42.84
73936;BME280;62287;50.858;0.252;2023-07-28T00:57:59;100396.35;;;20.62;42.63
73936;BME280;62287;50.858;0.252;2023-07-28T00:58:30;100396.44;;;20.43;42.78
73936;BME280;62287;50.858;0.252;2023-07-28T00:59:01;100399.60;;;20.67;42.64
73936;BME280;62287;50.858;0.252;2023-07-28T00:59:33;100397.24;;;20.37;42.78
73936;BME280;62287;50.858;0.252;2023-07-28T01:00:06;100396.44;;;20.63;42.65
73936;BME280;62287;50.858;0.252;2023-07-28T01:00:37;100399.10;;;19.88;42.62
73936;BME280;62287;50.858;0.252;2023-07-28T01:01:08;100394.89;;;19.96;42.81
73936;BME280;62287;50.858;0.252;2023-07-28T01:01:39;100395.91;;;19.96;42.90
73936;BME280;62287;50.858;0.252;2023-07-28T01:02:11;100396.58;;;20.77;42.61
73936;BME280;62287;50.858;0.252;2023-07-28T01:02:42;100396.36;;;20.75;42.51
73936;BME280;62287;50.858;0.252;2023-07-28T01:03:14;100396.16;;;20.81;42.43
73936;BME280;62287;50.858;0.252;2023-07-28T01:03:45;100395.85;;;20.56;42.32
73936;BME280;62287;50.858;0.252;2023-07-28T01:04:16;100393.74;;;20.76;42.23
73936;BME280;62287;50.858;0.252;2023-07-28T01:04:48;100395.43;;;20.91;42.25
73936;BME280;62287;50.858;0.252;2023-07-28T01:05:22;100393.92;;;20.86;42.25
73936;BME280;62287;50.858;0.252;2023-07-28T01:06:05;100394.85;;;20.72;42.37
73936;BME280;62287;50.858;0.252;2023-07-28T01:06:47;100393.69;;;20.84;42.33
73936;BME280;62287;50.858;0.252;2023-07-28T01:07:26;100391.95;;;20.74;42.41
73936;BME280;62287;50.858;0.252;2023-07-28T01:08:01;100395.13;;;20.75;42.32
73936;BME280;62287;50.858;0.252;2023-07-28T01:08:39;100391.56;;;20.77;42.27
73936;BME280;62287;50.858;0.252;2023-07-28T01:09:16;100389.53;;;20.83;42.27
73936;BME280;62287;50.858;0.252;2023-07-28T01:09:57;100389.81;;;20.80;42.32
73936;BME280;62287;50.858;0.252;2023-07-28T01:10:32;100389.00;;;20.90;42.14
73936;BME280;62287;50.858;0.252;2023-07-28T01:11:03;100389.34;;;20.32;42.36
73936;BME280;62287;50.858;0.252;2023-07-28T01:11:35;100386.86;;;20.64;42.46
73936;BME280;62287;50.858;0.252;2023-07-28T01:12:08;100385.66;;;20.61;42.52
73936;BME280;62287;50.858;0.252;2023-07-28T01:12:41;100387.34;;;20.35;42.30
73936;BME280;62287;50.858;0.252;2023-07-28T01:13:13;100387.63;;;20.40;42.61
73936;BME280;62287;50.858;0.252;2023-07-28T01:13:45;100389.15;;;20.65;42.48
73936;BME280;62287;50.858;0.252;2023-07-28T01:14:17;100390.55;;;20.75;42.39
73936;BME280;62287;50.858;0.252;2023-07-28T01:14:48;100389.57;;;20.68;42.40
73936;BME280;62287;50.858;0.252;2023-07-28T01:15:20;100388.15;;;20.52;42.12
73936;BME280;62287;50.858;0.252;2023-07-28T01:15:51;100386.89;;;20.74;42.03
73936;BME280;62287;50.858;0.252;2023-07-28T01:16:23;100390.77;;;21.00;42.07
73936;BME280;62287;50.858;0.252;2023-07-28T01:16:55;100386.63;;;21.02;41.97
73936;BME280;62287;50.858;0.252;2023-07-28T01:17:27;100390.75;;;20.50;42.11
73936;BME280;62287;50.858;0.252;2023-07-28T01:18:01;100391.21;;;20.40;42.26
73936;BME280;62287;50.858;0.252;2023-07-28T01:18:32;100391.39;;;20.56;42.14
73936;BME280;62287;50.858;0.252;2023-07-28T01:19:05;100392.39;;;20.51;42.15
73936;BME280;62287;50.858;0.252;2023-07-28T01:19:36;100390.14;;;20.56;42.07
73936;BME280;62287;50.858;0.252;2023-07-28T01:20:10;100387.53;;;21.34;41.81
73936;BME280;62287;50.858;0.252;2023-07-28T01:20:43;100389.03;;;20.48;41.80
73936;BME280;62287;50.858;0.252;2023-07-28T01:21:25;100388.88;;;20.78;41.73
73936;BME280;62287;50.858;0.252;2023-07-28T01:22:08;100391.72;;;20.88;41.73
73936;BME280;62287;50.858;0.252;2023-07-28T01:22:57;100391.57;;;20.64;41.65
73936;BME280;62287;50.858;0.252;2023-07-28T01:23:41;100392.72;;;21.13;41.87
73936;BME280;62287;50.858;0.252;2023-07-28T01:24:19;100395.40;;;21.06;41.86
73936;BME280;62287;50.858;0.252;2023-07-28T01:24:59;100393.36;;;20.76;41.86
73936;BME280;62287;50.858;0.252;2023-07-28T01:25:39;100393.30;;;20.79;41.85
73936;BME280;62287;50.858;0.252;2023-07-28T01:26:16;100394.83;;;20.65;41.94
73936;BME280;62287;50.858;0.252;2023-07-28T01:26:47;100390.24;;;20.83;41.82
73936;BME280;62287;50.858;0.252;2023-07-28T01:27:20;100393.18;;;20.35;41.76
73936;BME280;62287;50.858;0.252;2023-07-28T01:27:52;100394.00;;;21.10;41.77
73936;BME280;62287;50.858;0.252;2023-07-28T01:28:24;100394.23;;;20.53;41.84
73936;BME280;62287;50.858;0.252;2023-07-28T01:28:56;100395.04;;;20.31;42.08
73936;BME280;62287;50.858;0.252;2023-07-28T01:29:27;100394.82;;;20.25;42.20
73936;BME280;62287;50.858;0.252;2023-07-28T01:29:59;100395.41;;;20.56;42.10
73936;BME280;62287;50.858;0.252;2023-07-28T01:30:31;100395.48;;;20.64;41.91
73936;BME280;62287;50.858;0.252;2023-07-28T01:31:04;100396.47;;;20.42;42.12
73936;BME280;62287;50.858;0.252;2023-07-28T01:31:36;100394.15;;;21.11;41.86
73936;BME280;62287;50.858;0.252;2023-07-28T01:32:07;100392.53;;;20.91;41.65
73936;BME280;62287;50.858;0.252;2023-07-28T01:32:38;100393.26;;;21.09;41.61
73936;BME280;62287;50.858;0.252;2023-07-28T01:33:09;100391.61;;;20.54;41.59
73936;BME280;62287;50.858;0.252;2023-07-28T01:33:41;100393.37;;;21.04;41.51
73936;BME280;62287;50.858;0.252;2023-07-28T01:34:12;100391.87;;;20.83;41.71
73936;BME280;62287;50.858;0.252;2023-07-28T01:34:44;100391.79;;;21.29;41.69
73936;BME280;62287;50.858;0.252;2023-07-28T01:35:15;100393.12;;;20.14;41.90
73936;BME280;62287;50.858;0.252;2023-07-28T01:35:47;100389.52;;;20.72;41.72
73936;BME280;62287;50.858;0.252;2023-07-28T01:36:18;100391.18;;;20.52;41.66
73936;BME280;62287;50.858;0.252;2023-07-28T01:36:49;100393.42;;;20.72;41.68
73936;BME280;62287;50.858;0.252;2023-07-28T01:37:20;100391.37;;;20.87;41.55
73936;BME280;62287;50.858;0.252;2023-07-28T01:37:51;100395.72;;;20.83;41.68
73936;BME280;62287;50.858;0.252;2023-07-28T01:38:23;100393.64;;;20.75;41.71
73936;BME280;62287;50.858;0.252;2023-07-28T01:38:54;100396.10;;;20.66;41.69
73936;BME280;62287;50.858;0.252;2023-07-28T01:39:25;100396.98;;;20.73;41.71
73936;BME280;62287;50.858;0.252;2023-07-28T01:39:57;100398.18;;;20.73;41.72
73936;BME280;62287;50.858;0.252;2023-07-28T01:40:28;100395.50;;;21.12;41.65
73936;BME280;62287;50.858;0.252;2023-07-28T01:40:59;100395.02;;;20.92;41.48
73936;BME280;62287;50.858;0.252;2023-07-28T01:41:30;100393.89;;;20.82;41.56
73936;BME280;62287;50.858;0.252;2023-07-28T01:42:01;100394.11;;;20.88;41.58
73936;BME280;62287;50.858;0.252;2023-07-28T01:42:32;100394.61;;;20.75;41.65
73936;BME280;62287;50.858;0.252;2023-07-28T01:43:03;100392.70;;;20.97;41.48
73936;BME280;62287;50.858;0.252;2023-07-28T01:43:35;100392.03;;;21.12;41.62
73936;BME280;62287;50.858;0.252;2023-07-28T01:44:06;100392.34;;;20.95;41.50
73936;BME280;62287;50.858;0.252;2023-07-28T01:44:37;100393.05;;;21.43;41.40
73936;BME280;62287;50.858;0.252;2023-07-28T01:45:09;100395.21;;;20.58;41.38
73936;BME280;62287;50.858;0.252;2023-07-28T01:45:41;100393.89;;;20.85;41.45
73936;BME280;62287;50.858;0.252;2023-07-28T01:46:12;100391.21;;;21.21;41.52
73936;BME280;62287;50.858;0.252;2023-07-28T01:46:43;100393.26;;;20.77;41.58
73936;BME280;62287;50.858;0.252;2023-07-28T01:47:14;100391.24;;;20.80;41.55
73936;BME280;62287;50.858;0.252;2023-07-28T01:47:46;100387.98;;;20.86;41.49
73936;BME280;62287;50.858;0.252;2023-07-28T01:48:17;100389.01;;;20.64;41.64
73936;BME280;62287;50.858;0.252;2023-07-28T01:48:49;100386.78;;;21.16;41.59
73936;BME280;62287;50.858;0.252;2023-07-28T01:49:20;100387.68;;;20.90;41.49
73936;BME280;62287;50.858;0.252;2023-07-28T01:49:51;100388.23;;;20.99;41.40
73936;BME280;62287;50.858;0.252;2023-07-28T01:50:22;100386.69;;;20.75;41.60
73936;BME280;62287;50.858;0.252;2023-07-28T01:50:54;100386.52;;;21.17;41.56
73936;BME280;62287;50.858;0.252;2023-07-28T01:51:25;100389.51;;;20.96;41.51
73936;BME280;62287;50.858;0.252;2023-07-28T01:51:55;100387.78;;;21.05;41.41
73936;BME280;62287;50.858;0.252;2023-07-28T01:52:27;100388.14;;;20.92;41.44
73936;BME280;62287;50.858;0.252;2023-07-28T01:52:58;100386.86;;;20.96;41.39
73936;BME280;62287;50.858;0.252;2023-07-28T01:53:29;100385.98;;;20.95;41.36
73936;BME280;62287;50.858;0.252;2023-07-28T01:54:01;100383.26;;;21.13;41.52
73936;BME280;62287;50.858;0.252;2023-07-28T01:54:32;100385.61;;;21.14;41.52
73936;BME280;62287;50.858;0.252;2023-07-28T01:55:04;100386.72;;;21.15;41.54
73936;BME280;62287;50.858;0.252;2023-07-28T01:55:37;100385.72;;;20.79;41.58
73936;BME280;62287;50.858;0.252;2023-07-28T01:56:08;100386.73;;;21.10;41.38
73936;BME280;62287;50.858;0.252;2023-07-28T01:56:40;100388.15;;;20.83;41.39
73936;BME280;62287;50.858;0.252;2023-07-28T01:57:12;100386.26;;;21.03;41.39
73936;BME280;62287;50.858;0.252;2023-07-28T01:57:54;100385.95;;;20.64;41.32
73936;BME280;62287;50.858;0.252;2023-07-28T01:58:26;100386.36;;;21.03;41.30
73936;BME280;62287;50.858;0.252;2023-07-28T01:58:57;100385.69;;;20.42;41.52
73936;BME280;62287;50.858;0.252;2023-07-28T01:59:28;100388.13;;;20.85;41.54
73936;BME280;62287;50.858;0.252;2023-07-28T02:00:00;100387.13;;;21.07;41.29
73936;BME280;62287;50.858;0.252;2023-07-28T02:00:32;100386.97;;;20.70;41.52
73936;BME280;62287;50.858;0.252;2023-07-28T02:01:03;100385.67;;;21.06;41.37
73936;BME280;62287;50.858;0.252;2023-07-28T02:01:35;100388.05;;;20.95;41.40
73936;BME280;62287;50.858;0.252;2023-07-28T02:02:08;100387.07;;;20.83;41.51
73936;BME280;62287;50.858;0.252;2023-07-28T02:02:40;100388.87;;;21.35;41.37
73936;BME280;62287;50.858;0.252;2023-07-28T02:03:14;100387.06;;;20.97;41.35
73936;BME280;62287;50.858;0.252;2023-07-28T02:03:46;100387.56;;;20.66;41.56
73936;BME280;62287;50.858;0.252;2023-07-28T02:04:18;100386.52;;;20.42;41.49
73936;BME280;62287;50.858;0.252;2023-07-28T02:04:49;100388.31;;;21.10;41.25
73936;BME280;62287;50.858;0.252;2023-07-28T02:05:21;100389.31;;;21.18;41.11
73936;BME280;62287;50.858;0.252;2023-07-28T02:05:56;100388.83;;;21.08;41.26
73936;BME280;62287;50.858;0.252;2023-07-28T02:06:27;100388.64;;;20.89;41.32
73936;BME280;62287;50.858;0.252;2023-07-28T02:06:58;100390.63;;;20.41;41.77
73936;BME280;62287;50.858;0.252;2023-07-28T02:07:30;100388.99;;;20.49;41.44
73936;BME280;62287;50.858;0.252;2023-07-28T02:08:01;100385.96;;;20.70;41.46
73936;BME280;62287;50.858;0.252;2023-07-28T02:08:32;100388.34;;;20.87;41.77
73936;BME280;62287;50.858;0.252;2023-07-28T02:09:04;100389.36;;;21.16;41.55
73936;BME280;62287;50.858;0.252;2023-07-28T02:09:35;100386.21;;;20.98;41.35
73936;BME280;62287;50.858;0.252;2023-07-28T02:10:07;100388.52;;;20.92;41.28
73936;BME280;62287;50.858;0.252;2023-07-28T02:10:38;100388.71;;;20.61;41.24
73936;BME280;62287;50.858;0.252;2023-07-28T02:11:09;100388.15;;;21.13;41.21
73936;BME280;62287;50.858;0.252;2023-07-28T02:11:40;100388.61;;;20.98;41.18
73936;BME280;62287;50.858;0.252;2023-07-28T02:12:11;100388.11;;;20.66;41.24
73936;BME280;62287;50.858;0.252;2023-07-28T02:12:42;100389.87;;;20.87;41.23
73936;BME280;62287;50.858;0.252;2023-07-28T02:13:14;100386.42;;;20.97;41.25
73936;BME280;62287;50.858;0.252;2023-07-28T02:13:45;100388.22;;;20.36;41.49
73936;BME280;62287;50.858;0.252;2023-07-28T02:14:16;100389.05;;;21.08;41.23
73936;BME280;62287;50.858;0.252;2023-07-28T02:14:47;100387.01;;;21.09;41.10
73936;BME280;62287;50.858;0.252;2023-07-28T02:15:19;100386.41;;;21.03;41.21
73936;BME280;62287;50.858;0.252;2023-07-28T02:15:50;100386.49;;;21.37;41.27
73936;BME280;62287;50.858;0.252;2023-07-28T02:16:22;100388.09;;;20.64;41.28
73936;BME280;62287;50.858;0.252;2023-07-28T02:16:53;100387.08;;;20.95;41.26
73936;BME280;62287;50.858;0.252;2023-07-28T02:17:25;100389.97;;;21.27;41.36
73936;BME280;62287;50.858;0.252;2023-07-28T02:17:57;100389.57;;;20.79;41.48
73936;BME280;62287;50.858;0.252;2023-07-28T02:18:28;100389.29;;;20.93;41.45
73936;BME280;62287;50.858;0.252;2023-07-28T02:18:59;100390.07;;;20.47;41.45
73936;BME280;62287;50.858;0.252;2023-07-28T02:19:31;100391.71;;;21.22;41.42
73936;BME280;62287;50.858;0.252;2023-07-28T02:20:03;100392.98;;;20.28;41.52
73936;BME280;62287;50.858;0.252;2023-07-28T02:20:34;100393.62;;;20.43;41.43
73936;BME280;62287;50.858;0.252;2023-07-28T02:21:08;100393.99;;;20.84;41.04
73936;BME280;62287;50.858;0.252;2023-07-28T02:21:39;100392.97;;;21.25;41.00
73936;BME280;62287;50.858;0.252;2023-07-28T02:22:11;100393.29;;;21.02;40.95
73936;BME280;62287;50.858;0.252;2023-07-28T02:22:43;100392.95;;;21.47;40.86
73936;BME280;62287;50.858;0.252;2023-07-28T02:23:20;100392.17;;;21.11;41.13
73936;BME280;62287;50.858;0.252;2023-07-28T02:23:51;100393.10;;;20.85;41.13
73936;BME280;62287;50.858;0.252;2023-07-28T02:24:24;100390.70;;;20.98;40.97
73936;BME280;62287;50.858;0.252;2023-07-28T02:24:56;100388.84;;;21.34;40.91
73936;BME280;62287;50.858;0.252;2023-07-28T02:25:28;100389.19;;;21.73;40.84
73936;BME280;62287;50.858;0.252;2023-07-28T02:25:59;100386.30;;;21.60;40.84
73936;BME280;62287;50.858;0.252;2023-07-28T02:26:30;100387.50;;;21.11;40.79
73936;BME280;62287;50.858;0.252;2023-07-28T02:27:01;100385.92;;;21.27;40.90
73936;BME280;62287;50.858;0.252;2023-07-28T02:27:33;100386.78;;;21.22;40.95
73936;BME280;62287;50.858;0.252;2023-07-28T02:28:04;100385.53;;;21.34;40.83
73936;BME280;62287;50.858;0.252;2023-07-28T02:28:35;100383.05;;;20.89;41.14
73936;BME280;62287;50.858;0.252;2023-07-28T02:29:06;100381.16;;;20.89;41.29
73936;BME280;62287;50.858;0.252;2023-07-28T02:29:37;100383.94;;;20.05;41.64
73936;BME280;62287;50.858;0.252;2023-07-28T02:30:08;100384.63;;;20.35;41.65
73936;BME280;62287;50.858;0.252;2023-07-28T02:30:40;100384.87;;;20.85;41.75
73936;BME280;62287;50.858;0.252;2023-07-28T02:31:13;100381.34;;;20.75;41.36
73936;BME280;62287;50.858;0.252;2023-07-28T02:31:46;100382.37;;;20.87;41.40
73936;BME280;62287;50.858;0.252;2023-07-28T02:32:20;100380.27;;;20.63;41.53
73936;BME280;62287;50.858;0.252;2023-07-28T02:32:52;100381.14;;;20.83;41.58
73936;BME280;62287;50.858;0.252;2023-07-28T02:33:23;100380.43;;;20.60;41.53
73936;BME280;62287;50.858;0.252;2023-07-28T02:33:55;100380.33;;;20.56;41.48
73936;BME280;62287;50.858;0.252;2023-07-28T02:34:27;100379.97;;;20.86;41.26
73936;BME280;62287;50.858;0.252;2023-07-28T02:34:59;100379.49;;;20.66;41.49
73936;BME280;62287;50.858;0.252;2023-07-28T02:35:37;100380.75;;;20.41;41.40
73936;BME280;62287;50.858;0.252;2023-07-28T02:36:08;100381.55;;;20.73;41.34
73936;BME280;62287;50.858;0.252;2023-07-28T02:36:40;100380.30;;;20.73;41.40
73936;BME280;62287;50.858;0.252;2023-07-28T02:37:12;100381.16;;;21.00;41.42
73936;BME280;62287;50.858;0.252;2023-07-28T02:37:46;100381.07;;;20.77;41.24
73936;BME280;62287;50.858;0.252;2023-07-28T02:38:18;100382.65;;;20.96;41.21
73936;BME280;62287;50.858;0.252;2023-07-28T02:38:49;100380.52;;;20.53;41.20
73936;BME280;62287;50.858;0.252;2023-07-28T02:39:20;100378.74;;;21.16;40.99
73936;BME280;62287;50.858;0.252;2023-07-28T02:39:52;100377.58;;;21.16;40.97
73936;BME280;62287;50.858;0.252;2023-07-28T02:40:24;100378.22;;;20.81;41.14
73936;BME280;62287;50.858;0.252;2023-07-28T02:40:55;100378.23;;;20.76;41.32
73936;BME280;62287;50.858;0.252;2023-07-28T02:41:28;100378.95;;;20.53;41.23
73936;BME280;62287;50.858;0.252;2023-07-28T02:42:00;100377.49;;;20.74;41.27
73936;BME280;62287;50.858;0.252;2023-07-28T02:42:36;100376.80;;;20.58;41.23
73936;BME280;62287;50.858;0.252;2023-07-28T02:43:08;100375.43;;;20.63;41.03
73936;BME280;62287;50.858;0.252;2023-07-28T02:43:40;100373.20;;;21.24;40.82
73936;BME280;62287;50.858;0.252;2023-07-28T02:44:12;100374.46;;;20.67;40.96
73936;BME280;62287;50.858;0.252;2023-07-28T02:44:46;100372.05;;;20.58;41.11
73936;BME280;62287;50.858;0.252;2023-07-28T02:45:17;100371.55;;;21.30;41.11
73936;BME280;62287;50.858;0.252;2023-07-28T02:45:53;100371.94;;;20.74;41.20
73936;BME280;62287;50.858;0.252;2023-07-28T02:46:25;100369.59;;;20.75;41.14
73936;BME280;62287;50.858;0.252;2023-07-28T02:46:57;100370.51;;;21.04;41.22
73936;BME280;62287;50.858;0.252;2023-07-28T02:47:28;100369.75;;;21.05;41.00
73936;BME280;62287;50.858;0.252;2023-07-28T02:48:01;100371.72;;;20.37;41.18
73936;BME280;62287;50.858;0.252;2023-07-28T02:48:32;100368.76;;;20.69;41.29